sensor_id;sensor_type;location;lat;lon;timestamp;pressure;altitude;pressure_sealevel;temperature;humidity
37132;BME280;23035;50.032;21.978;2023-08-12T00:03:15;66697.34;;;14.48;100.00
37132;BME280;23035;50.032;21.978;2023-08-12T00:08:20;66721.16;;;14.76;100.00
37132;BME280;23035;50.032;21.978;2023-08-12T00:13:25;66667.78;;;14.23;100.00
37132;BME280;23035;50.032;21.978;2023-08-12T00:18:30;66668.78;;;14.21;100.00
37132;BME280;23035;50.032;21.978;2023-08-12T00:23:40;66699.94;;;14.48;100.00
37132;BME280;23035;50.032;21.978;2023-08-12T00:28:48;66677.34;;;14.27;100.00
37132;BME280;23035;50.032;21.978;2023-08-12T00:33:55;66706.56;;;14.59;100.00
37132;BME280;23035;50.032;21.978;2023-08-12T00:38:59;66680.09;;;14.32;100.00
37132;BME280;23035;50.032;21.978;2023-08-12T00:44:04;66605.34;;;13.61;100.00
37132;BME280;23035;50.032;21.978;2023-08-12T00:49:12;66614.41;;;13.67;100.00
37132;BME280;23035;50.032;21.978;2023-08-12T00:54:16;66618.88;;;13.76;100.00
37132;BME280;23035;50.032;21.978;2023-08-12T00:59:22;66625.78;;;13.81;100.00
37132;BME280;23035;50.032;21.978;2023-08-12T01:04:27;66642.00;;;13.98;100.00
37132;BME280;23035;50.032;21.978;2023-08-12T01:09:31;66610.19;;;13.66;100.00
37132;BME280;23035;50.032;21.978;2023-08-12T01:14:42;66572.09;;;13.32;100.00
37132;BME280;23035;50.032;21.978;2023-08-12T01:19:51;66664.56;;;14.20;100.00
37132;BME280;23035;50.032;21.978;2023-08-12T01:24:56;66606.50;;;13.65;100.00
37132;BME280;23035;50.032;21.978;2023-08-12T01:30:01;66611.34;;;13.69;100.00
37132;BME280;23035;50.032;21.978;2023-08-12T01:35:12;66611.28;;;13.67;100.00
37132;BME280;23035;50.032;21.978;2023-08-12T01:40:20;66615.56;;;13.71;100.00
37132;BME280;23035;50.032;21.978;2023-08-12T01:45:24;66511.28;;;12.72;100.00
37132;BME280;23035;50.032;21.978;2023-08-12T01:50:28;66528.91;;;12.86;100.00
37132;BME280;23035;50.032;21.978;2023-08-12T01:55:34;66645.59;;;13.97;100.00
37132;BME280;23035;50.032;21.978;2023-08-12T02:00:38;66603.09;;;13.57;100.00
37132;BME280;23035;50.032;21.978;2023-08-12T02:05:42;66603.19;;;13.59;100.00
37132;BME280;23035;50.032;21.978;2023-08-12T02:10:48;66585.53;;;13.45;100.00
37132;BME280;23035;50.032;21.978;2023-08-12T02:15:52;66533.22;;;12.90;100.00
37132;BME280;23035;50.032;21.978;2023-08-12T02:20:58;66580.00;;;13.35;100.00
37132;BME280;23035;50.032;21.978;2023-08-12T02:26:03;66617.72;;;13.73;100.00
37132;BME280;23035;50.032;21.978;2023-08-12T02:31:07;66551.13;;;13.12;100.00
37132;BME280;23035;50.032;21.978;2023-08-12T02:36:11;66570.41;;;13.28;100.00
37132;BME280;23035;50.032;21.978;2023-08-12T02:41:16;66565.03;;;13.23;100.00
37132;BME280;23035;50.032;21.978;2023-08-12T02:46:20;66499.47;;;12.61;100.00
37132;BME280;23035;50.032;21.978;2023-08-12T02:51:25;66446.91;;;12.14;100.00
37132;BME280;23035;50.032;21.978;2023-08-12T02:56:30;66533.38;;;12.96;100.00
37132;BME280;23035;50.032;21.978;2023-08-12T03:01:34;66474.31;;;12.40;100.00
37132;BME280;23035;50.032;21.978;2023-08-12T03:06:38;66499.53;;;12.63;100.00
37132;BME280;23035;50.032;21.978;2023-08-12T03:11:44;66541.38;;;13.01;100.00
37132;BME280;23035;50.032;21.978;2023-08-12T03:16:48;66517.72;;;12.78;100.00
37132;BME280;23035;50.032;21.978;2023-08-12T03:21:52;66559.66;;;13.18;100.00
37132;BME280;23035;50.032;21.978;2023-08-12T03:26:59;66577.94;;;13.35;100.00
37132;BME280;23035;50.032;21.978;2023-08-12T03:32:05;66579.53;;;13.37;100.00
37132;BME280;23035;50.032;21.978;2023-08-12T03:37:10;66608.19;;;13.69;100.00
37132;BME280;23035;50.032;21.978;2023-08-12T03:42:16;66664.56;;;14.20;100.00
37132;BME280;23035;50.032;21.978;2023-08-12T03:47:22;66624.63;;;13.77;100.00
37132;BME280;23035;50.032;21.978;2023-08-12T03:52:27;66653.22;;;14.06;100.00
37132;BME280;23035;50.032;21.978;2023-08-12T03:57:33;66614.50;;;13.70;100.00
37132;BME280;23035;50.032;21.978;2023-08-12T04:02:37;66672.13;;;14.27;100.00
37132;BME280;23035;50.032;21.978;2023-08-12T04:07:42;66633.38;;;13.90;100.00
37132;BME280;23035;50.032;21.978;2023-08-12T04:12:47;66673.03;;;14.23;100.00
37132;BME280;23035;50.032;21.978;2023-08-12T04:17:53;66694.72;;;14.48;100.00
37132;BME280;23035;50.032;21.978;2023-08-12T04:22:56;66798.50;;;15.44;100.00
37132;BME280;23035;50.032;21.978;2023-08-12T04:28:02;66799.59;;;15.45;100.00
37132;BME280;23035;50.032;21.978;2023-08-12T04:33:09;66814.66;;;15.59;100.00
37132;BME280;23035;50.032;21.978;2023-08-12T04:38:15;66821.13;;;15.65;100.00
37132;BME280;23035;50.032;21.978;2023-08-12T04:43:23;66817.44;;;15.64;100.00
37132;BME280;23035;50.032;21.978;2023-08-12T04:48:27;66833.53;;;15.77;100.00
37132;BME280;23035;50.032;21.978;2023-08-12T04:53:31;66770.03;;;15.19;100.00
37132;BME280;23035;50.032;21.978;2023-08-12T04:58:37;66823.44;;;15.72;100.00
37132;BME280;23035;50.032;21.978;2023-08-12T05:03:41;66861.00;;;16.03;100.00
37132;BME280;23035;50.032;21.978;2023-08-12T05:08:45;66913.63;;;16.48;100.00
37132;BME280;23035;50.032;21.978;2023-08-12T05:13:51;66931.66;;;16.72;100.00
37132;BME280;23035;50.032;21.978;2023-08-12T05:18:55;67112.34;;;18.45;100.00
37132;BME280;23035;50.032;21.978;2023-08-12T05:24:00;67035.16;;;17.70;100.00
37132;BME280;23035;50.032;21.978;2023-08-12T05:29:06;67009.72;;;17.43;100.00
37132;BME280;23035;50.032;21.978;2023-08-12T05:34:10;67064.75;;;17.95;100.00
37132;BME280;23035;50.032;21.978;2023-08-12T05:39:14;67089.63;;;18.21;100.00
37132;BME280;23035;50.032;21.978;2023-08-12T05:44:20;67107.97;;;18.39;100.00
37132;BME280;23035;50.032;21.978;2023-08-12T05:49:24;67139.81;;;18.69;100.00
37132;BME280;23035;50.032;21.978;2023-08-12T05:54:28;67155.53;;;18.86;100.00
37132;BME280;23035;50.032;21.978;2023-08-12T05:59:33;67134.41;;;18.63;100.00
37132;BME280;23035;50.032;21.978;2023-08-12T06:04:37;67215.84;;;19.38;94.83
37132;BME280;23035;50.032;21.978;2023-08-12T06:09:41;67221.72;;;19.41;96.72
37132;BME280;23035;50.032;21.978;2023-08-12T06:14:47;67153.38;;;18.84;100.00
37132;BME280;23035;50.032;21.978;2023-08-12T06:19:51;67102.56;;;18.33;100.00
37132;BME280;23035;50.032;21.978;2023-08-12T06:24:55;67149.41;;;18.73;100.00
37132;BME280;23035;50.032;21.978;2023-08-12T06:30:00;67265.09;;;19.87;94.64
37132;BME280;23035;50.032;21.978;2023-08-12T06:35:04;67329.91;;;20.48;87.34
37132;BME280;23035;50.032;21.978;2023-08-12T06:40:08;67363.34;;;20.77;81.49
37132;BME280;23035;50.032;21.978;2023-08-12T06:45:42;67251.66;;;19.76;89.40
37132;BME280;23035;50.032;21.978;2023-08-12T06:50:52;67265.47;;;19.82;86.34
37132;BME280;23035;50.032;21.978;2023-08-12T06:55:57;67425.09;;;21.40;79.76
37132;BME280;23035;50.032;21.978;2023-08-12T07:01:02;67472.50;;;21.77;76.02
37132;BME280;23035;50.032;21.978;2023-08-12T07:06:06;67492.50;;;21.96;76.11
37132;BME280;23035;50.032;21.978;2023-08-12T07:11:12;67496.84;;;22.00;77.66
37132;BME280;23035;50.032;21.978;2023-08-12T07:16:17;67535.31;;;22.39;74.35
37132;BME280;23035;50.032;21.978;2023-08-12T07:21:21;67542.41;;;22.48;70.47
37132;BME280;23035;50.032;21.978;2023-08-12T07:26:25;67506.66;;;22.12;69.15
37132;BME280;23035;50.032;21.978;2023-08-12T07:31:31;67491.97;;;21.95;69.95
37132;BME280;23035;50.032;21.978;2023-08-12T07:36:35;67539.13;;;22.42;66.58
37132;BME280;23035;50.032;21.978;2023-08-12T07:41:39;67501.78;;;22.07;72.56
37132;BME280;23035;50.032;21.978;2023-08-12T07:46:45;67548.78;;;22.49;68.88
37132;BME280;23035;50.032;21.978;2023-08-12T07:51:49;67466.13;;;21.76;71.40
37132;BME280;23035;50.032;21.978;2023-08-12T07:56:54;67537.00;;;22.43;67.52
37132;BME280;23035;50.032;21.978;2023-08-12T08:01:59;67584.16;;;22.89;65.76
37132;BME280;23035;50.032;21.978;2023-08-12T08:07:04;67601.34;;;23.01;65.29
37132;BME280;23035;50.032;21.978;2023-08-12T08:12:11;67744.38;;;24.38;56.84
37132;BME280;23035;50.032;21.978;2023-08-12T08:17:17;67727.03;;;24.21;61.49
37132;BME280;23035;50.032;21.978;2023-08-12T08:22:21;67670.59;;;23.63;60.33
37132;BME280;23035;50.032;21.978;2023-08-12T08:27:26;67775.78;;;24.67;58.58
37132;BME280;23035;50.032;21.978;2023-08-12T08:32:31;67756.78;;;24.47;58.73
37132;BME280;23035;50.032;21.978;2023-08-12T08:37:35;67631.78;;;23.34;62.32
37132;BME280;23035;50.032;21.978;2023-08-12T08:42:41;67721.63;;;24.16;61.39
37132;BME280;23035;50.032;21.978;2023-08-12T08:47:49;67764.97;;;24.57;60.15
37132;BME280;23035;50.032;21.978;2023-08-12T08:52:56;67721.72;;;24.21;59.61
37132;BME280;23035;50.032;21.978;2023-08-12T08:58:00;67605.72;;;23.07;61.19
37132;BME280;23035;50.032;21.978;2023-08-12T09:03:09;67642.47;;;23.39;60.52
37132;BME280;23035;50.032;21.978;2023-08-12T09:08:15;67618.19;;;23.19;59.82
37132;BME280;23035;50.032;21.978;2023-08-12T09:13:19;67633.22;;;23.28;62.55
37132;BME280;23035;50.032;21.978;2023-08-12T09:18:25;67672.28;;;23.67;60.69
37132;BME280;23035;50.032;21.978;2023-08-12T09:23:34;67658.78;;;23.57;61.00
37132;BME280;23035;50.032;21.978;2023-08-12T09:28:39;67654.47;;;23.53;63.72
37132;BME280;23035;50.032;21.978;2023-08-12T09:33:44;67678.19;;;23.70;63.71
37132;BME280;23035;50.032;21.978;2023-08-12T09:38:48;67781.75;;;24.73;59.89
37132;BME280;23035;50.032;21.978;2023-08-12T09:43:52;67716.75;;;24.12;61.42
37132;BME280;23035;50.032;21.978;2023-08-12T09:48:58;67808.91;;;25.01;62.10
37132;BME280;23035;50.032;21.978;2023-08-12T09:54:02;67899.84;;;25.79;61.03
37132;BME280;23035;50.032;21.978;2023-08-12T09:59:07;67814.84;;;25.04;62.75
37132;BME280;23035;50.032;21.978;2023-08-12T10:04:14;67834.94;;;25.25;61.98
37132;BME280;23035;50.032;21.978;2023-08-12T10:09:20;67898.31;;;25.82;63.19
37132;BME280;23035;50.032;21.978;2023-08-12T10:14:25;67879.81;;;25.62;64.96
37132;BME280;23035;50.032;21.978;2023-08-12T10:19:32;67925.47;;;26.10;66.38
37132;BME280;23035;50.032;21.978;2023-08-12T10:24:38;67852.22;;;25.39;68.49
37132;BME280;23035;50.032;21.978;2023-08-12T10:29:43;67907.53;;;25.91;68.16
37132;BME280;23035;50.032;21.978;2023-08-12T10:34:54;67932.53;;;26.17;69.48
37132;BME280;23035;50.032;21.978;2023-08-12T10:39:58;67973.19;;;26.52;68.11
37132;BME280;23035;50.032;21.978;2023-08-12T10:45:04;67819.19;;;25.08;73.82
37132;BME280;23035;50.032;21.978;2023-08-12T10:50:21;67810.47;;;25.00;75.40
37132;BME280;23035;50.032;21.978;2023-08-12T10:55:27;67833.25;;;25.21;74.23
37132;BME280;23035;50.032;21.978;2023-08-12T11:00:31;67797.97;;;24.85;74.29
37132;BME280;23035;50.032;21.978;2023-08-12T11:05:37;67816.94;;;25.03;75.66
37132;BME280;23035;50.032;21.978;2023-08-12T11:10:43;67916.22;;;25.99;73.41
37132;BME280;23035;50.032;21.978;2023-08-12T11:15:47;67819.72;;;25.08;74.68
37132;BME280;23035;50.032;21.978;2023-08-12T11:20:54;68001.34;;;26.76;71.04
37132;BME280;23035;50.032;21.978;2023-08-12T11:25:58;68137.09;;;28.06;68.49
37132;BME280;23035;50.032;21.978;2023-08-12T11:31:04;68133.88;;;28.06;69.86
37132;BME280;23035;50.032;21.978;2023-08-12T11:36:10;68292.03;;;29.56;66.46
37132;BME280;23035;50.032;21.978;2023-08-12T11:41:17;68165.38;;;28.33;70.03
37132;BME280;23035;50.032;21.978;2023-08-12T11:46:21;68070.25;;;27.41;73.26
37132;BME280;23035;50.032;21.978;2023-08-12T11:51:26;68331.06;;;29.88;69.87
37132;BME280;23035;50.032;21.978;2023-08-12T11:56:30;68217.50;;;28.81;71.16
37132;BME280;23035;50.032;21.978;2023-08-12T12:01:34;68252.28;;;29.14;71.09
37132;BME280;23035;50.032;21.978;2023-08-12T12:06:40;68254.44;;;29.16;72.77
37132;BME280;23035;50.032;21.978;2023-08-12T12:11:44;68481.31;;;31.36;68.19
37132;BME280;23035;50.032;21.978;2023-08-12T12:16:48;68305.53;;;29.64;72.88
37132;BME280;23035;50.032;21.978;2023-08-12T12:21:55;68277.75;;;29.35;73.84
37132;BME280;23035;50.032;21.978;2023-08-12T12:26:59;68488.31;;;31.37;70.51
37132;BME280;23035;50.032;21.978;2023-08-12T12:32:03;68045.94;;;27.23;77.89
37132;BME280;23035;50.032;21.978;2023-08-12T12:37:09;68351.22;;;30.07;72.72
37132;BME280;23035;50.032;21.978;2023-08-12T12:42:13;68516.66;;;31.66;69.40
37132;BME280;23035;50.032;21.978;2023-08-12T12:47:17;68504.59;;;31.50;70.08
37132;BME280;23035;50.032;21.978;2023-08-12T12:52:22;68464.31;;;31.12;72.06
37132;BME280;23035;50.032;21.978;2023-08-12T12:57:27;68185.41;;;28.49;76.34
37132;BME280;23035;50.032;21.978;2023-08-12T13:02:34;68485.53;;;31.30;71.45
37132;BME280;23035;50.032;21.978;2023-08-12T13:07:40;68457.78;;;31.06;72.10
37132;BME280;23035;50.032;21.978;2023-08-12T13:12:44;68553.53;;;31.91;71.15
37132;BME280;23035;50.032;21.978;2023-08-12T13:17:48;68550.91;;;31.96;70.93
37132;BME280;23035;50.032;21.978;2023-08-12T13:22:54;68467.69;;;31.21;72.63
37132;BME280;23035;50.032;21.978;2023-08-12T13:27:59;68489.34;;;31.36;72.65
37132;BME280;23035;50.032;21.978;2023-08-12T13:33:03;68547.06;;;31.90;71.38
37132;BME280;23035;50.032;21.978;2023-08-12T13:38:10;68581.94;;;32.28;72.12
37132;BME280;23035;50.032;21.978;2023-08-12T13:43:14;68644.50;;;32.81;71.23
37132;BME280;23035;50.032;21.978;2023-08-12T13:48:18;68641.75;;;32.76;71.26
37132;BME280;23035;50.032;21.978;2023-08-12T13:53:23;68684.25;;;33.18;71.27
37132;BME280;23035;50.032;21.978;2023-08-12T13:58:27;68641.69;;;32.73;72.74
37132;BME280;23035;50.032;21.978;2023-08-12T14:03:31;68563.38;;;32.05;73.38
37132;BME280;23035;50.032;21.978;2023-08-12T14:08:37;68517.66;;;31.62;74.88
37132;BME280;23035;50.032;21.978;2023-08-12T14:13:41;68651.66;;;32.93;73.02
37132;BME280;23035;50.032;21.978;2023-08-12T14:18:45;68666.78;;;32.97;72.88
37132;BME280;23035;50.032;21.978;2023-08-12T14:23:50;68633.63;;;32.73;73.33
37132;BME280;23035;50.032;21.978;2023-08-12T14:28:54;68621.13;;;32.62;73.88
37132;BME280;23035;50.032;21.978;2023-08-12T14:34:01;68571.03;;;32.15;75.10
37132;BME280;23035;50.032;21.978;2023-08-12T14:39:07;68618.91;;;32.57;74.10
37132;BME280;23035;50.032;21.978;2023-08-12T14:44:11;68649.44;;;32.88;73.13
37132;BME280;23035;50.032;21.978;2023-08-12T14:49:15;68559.53;;;31.99;74.87
37132;BME280;23035;50.032;21.978;2023-08-12T14:54:20;68443.69;;;30.96;76.67
37132;BME280;23035;50.032;21.978;2023-08-12T14:59:24;68593.91;;;32.36;74.77
37132;BME280;23035;50.032;21.978;2023-08-12T15:04:28;68741.47;;;33.72;72.11
37132;BME280;23035;50.032;21.978;2023-08-12T15:09:33;68617.78;;;32.53;75.73
37132;BME280;23035;50.032;21.978;2023-08-12T15:14:37;68695.16;;;33.28;73.34
37132;BME280;23035;50.032;21.978;2023-08-12T15:19:41;68732.72;;;33.61;73.22
37132;BME280;23035;50.032;21.978;2023-08-12T15:24:46;68593.28;;;32.31;75.84
37132;BME280;23035;50.032;21.978;2023-08-12T15:29:50;68715.25;;;33.42;73.03
37132;BME280;23035;50.032;21.978;2023-08-12T15:34:54;68664.59;;;32.95;73.71
37132;BME280;23035;50.032;21.978;2023-08-12T15:40:00;68721.31;;;33.53;72.64
37132;BME280;23035;50.032;21.978;2023-08-12T15:45:05;68654.84;;;32.88;73.67
37132;BME280;23035;50.032;21.978;2023-08-12T15:50:10;68738.75;;;33.69;72.09
37132;BME280;23035;50.032;21.978;2023-08-12T15:55:15;68603.66;;;32.43;76.04
37132;BME280;23035;50.032;21.978;2023-08-12T16:00:20;68568.19;;;32.05;74.74
37132;BME280;23035;50.032;21.978;2023-08-12T16:05:24;68617.84;;;32.56;74.52
37132;BME280;23035;50.032;21.978;2023-08-12T16:10:29;68672.22;;;33.02;73.88
37132;BME280;23035;50.032;21.978;2023-08-12T16:15:33;68607.50;;;32.46;74.88
37132;BME280;23035;50.032;21.978;2023-08-12T16:20:41;68405.00;;;30.54;78.82
37132;BME280;23035;50.032;21.978;2023-08-12T16:25:46;68283.28;;;29.46;81.83
37132;BME280;23035;50.032;21.978;2023-08-12T16:30:51;68068.75;;;27.44;85.09
37132;BME280;23035;50.032;21.978;2023-08-12T16:35:55;68058.31;;;27.30;85.95
37132;BME280;23035;50.032;21.978;2023-08-12T16:41:01;67998.13;;;26.76;86.55
37132;BME280;23035;50.032;21.978;2023-08-12T16:46:06;67856.41;;;25.35;89.12
37132;BME280;23035;50.032;21.978;2023-08-12T16:51:10;67885.78;;;25.68;88.36
37132;BME280;23035;50.032;21.978;2023-08-12T16:56:21;67873.31;;;25.56;88.59
37132;BME280;23035;50.032;21.978;2023-08-12T17:01:35;67882.53;;;25.65;89.37
37132;BME280;23035;50.032;21.978;2023-08-12T17:06:40;67962.28;;;26.40;88.38
37132;BME280;23035;50.032;21.978;2023-08-12T17:11:45;67952.47;;;26.28;89.37
37132;BME280;23035;50.032;21.978;2023-08-12T17:16:49;67928.09;;;26.08;92.10
37132;BME280;23035;50.032;21.978;2023-08-12T17:21:53;67944.91;;;26.23;94.69
37132;BME280;23035;50.032;21.978;2023-08-12T17:26:58;67924.78;;;26.02;97.44
37132;BME280;23035;50.032;21.978;2023-08-12T17:32:03;67758.34;;;24.46;100.00
37132;BME280;23035;50.032;21.978;2023-08-12T17:37:07;67703.16;;;23.96;100.00
37132;BME280;23035;50.032;21.978;2023-08-12T17:42:12;67711.75;;;24.02;100.00
37132;BME280;23035;50.032;21.978;2023-08-12T17:47:16;67567.84;;;22.72;100.00
37132;BME280;23035;50.032;21.978;2023-08-12T17:52:24;67437.91;;;21.44;100.00
37132;BME280;23035;50.032;21.978;2023-08-12T17:57:29;67394.03;;;21.01;100.00
37132;BME280;23035;50.032;21.978;2023-08-12T18:02:33;67437.41;;;21.46;100.00
37132;BME280;23035;50.032;21.978;2023-08-12T18:07:37;67405.03;;;21.18;100.00
37132;BME280;23035;50.032;21.978;2023-08-12T18:12:43;67357.41;;;20.71;100.00
37132;BME280;23035;50.032;21.978;2023-08-12T18:17:47;67384.84;;;20.92;100.00
37132;BME280;23035;50.032;21.978;2023-08-12T18:22:53;67333.63;;;20.49;100.00
37132;BME280;23035;50.032;21.978;2023-08-12T18:27:59;67217.88;;;19.35;100.00
37132;BME280;23035;50.032;21.978;2023-08-12T18:33:04;67207.22;;;19.30;100.00
37132;BME280;23035;50.032;21.978;2023-08-12T18:38:08;67244.47;;;19.65;100.00
37132;BME280;23035;50.032;21.978;2023-08-12T18:43:14;67187.84;;;19.14;100.00
37132;BME280;23035;50.032;21.978;2023-08-12T18:48:18;67118.16;;;18.46;100.00
37132;BME280;23035;50.032;21.978;2023-08-12T18:53:22;67070.16;;;18.00;100.00
37132;BME280;23035;50.032;21.978;2023-08-12T18:58:28;67117.13;;;18.47;100.00
37132;BME280;23035;50.032;21.978;2023-08-12T19:03:32;67151.56;;;18.75;100.00
37132;BME280;23035;50.032;21.978;2023-08-12T19:08:37;67109.44;;;18.35;100.00
37132;BME280;23035;50.032;21.978;2023-08-12T19:13:44;67075.00;;;18.05;100.00
37132;BME280;23035;50.032;21.978;2023-08-12T19:18:50;67165.03;;;18.87;100.00
37132;BME280;23035;50.032;21.978;2023-08-12T19:23:54;67153.31;;;18.81;100.00
37132;BME280;23035;50.032;21.978;2023-08-12T19:29:00;67241.19;;;19.59;100.00
37132;BME280;23035;50.032;21.978;2023-08-12T19:34:04;67227.66;;;19.46;100.00
37132;BME280;23035;50.032;21.978;2023-08-12T19:39:09;67201.28;;;19.24;100.00
37132;BME280;23035;50.032;21.978;2023-08-12T19:44:15;67306.53;;;20.21;100.00
37132;BME280;23035;50.032;21.978;2023-08-12T19:49:19;67235.69;;;19.52;100.00
37132;BME280;23035;50.032;21.978;2023-08-12T19:54:23;67245.56;;;19.66;100.00
37132;BME280;23035;50.032;21.978;2023-08-12T19:59:30;67266.56;;;19.83;100.00
37132;BME280;23035;50.032;21.978;2023-08-12T20:04:34;67250.44;;;19.70;100.00
37132;BME280;23035;50.032;21.978;2023-08-12T20:09:38;67185.69;;;19.12;100.00
37132;BME280;23035;50.032;21.978;2023-08-12T20:14:43;67283.31;;;19.99;100.00
37132;BME280;23035;50.032;21.978;2023-08-12T20:19:48;67174.22;;;18.96;100.00
37132;BME280;23035;50.032;21.978;2023-08-12T20:24:52;67238.50;;;19.57;100.00
37132;BME280;23035;50.032;21.978;2023-08-12T20:29:58;67154.88;;;18.80;100.00
37132;BME280;23035;50.032;21.978;2023-08-12T20:35:02;67276.41;;;19.97;100.00
37132;BME280;23035;50.032;21.978;2023-08-12T20:40:08;67177.06;;;19.04;100.00
37132;BME280;23035;50.032;21.978;2023-08-12T20:45:13;67197.44;;;19.18;100.00
37132;BME280;23035;50.032;21.978;2023-08-12T20:50:18;67194.66;;;19.13;100.00
37132;BME280;23035;50.032;21.978;2023-08-12T20:55:22;67079.22;;;18.06;100.00
37132;BME280;23035;50.032;21.978;2023-08-12T21:00:28;67190.47;;;19.14;100.00
37132;BME280;23035;50.032;21.978;2023-08-12T21:05:35;67159.13;;;18.82;100.00
37132;BME280;23035;50.032;21.978;2023-08-12T21:10:39;67226.66;;;19.48;100.00
37132;BME280;23035;50.032;21.978;2023-08-12T21:15:45;67180.69;;;19.02;100.00
37132;BME280;23035;50.032;21.978;2023-08-12T21:20:49;67169.44;;;18.94;100.00
37132;BME280;23035;50.032;21.978;2023-08-12T21:25:53;67214.75;;;19.37;100.00
37132;BME280;23035;50.032;21.978;2023-08-12T21:30:58;67089.09;;;18.21;100.00
37132;BME280;23035;50.032;21.978;2023-08-12T21:36:02;67133.19;;;18.57;100.00
37132;BME280;23035;50.032;21.978;2023-08-12T21:41:06;67168.94;;;18.96;100.00
37132;BME280;23035;50.032;21.978;2023-08-12T21:46:12;67132.63;;;18.57;100.00
37132;BME280;23035;50.032;21.978;2023-08-12T21:51:16;67102.50;;;18.31;100.00
37132;BME280;23035;50.032;21.978;2023-08-12T21:56:25;67052.88;;;17.84;100.00
37132;BME280;23035;50.032;21.978;2023-08-12T22:01:31;67117.06;;;18.45;100.00
37132;BME280;23035;50.032;21.978;2023-08-12T22:06:35;67062.00;;;17.90;100.00
37132;BME280;23035;50.032;21.978;2023-08-12T22:11:39;67070.59;;;17.98;100.00
37132;BME280;23035;50.032;21.978;2023-08-12T22:16:44;67078.75;;;18.09;100.00
37132;BME280;23035;50.032;21.978;2023-08-12T22:21:48;67009.78;;;17.46;100.00
37132;BME280;23035;50.032;21.978;2023-08-12T22:26:53;67043.09;;;17.72;100.00
37132;BME280;23035;50.032;21.978;2023-08-12T22:31:58;67027.44;;;17.58;100.00
37132;BME280;23035;50.032;21.978;2023-08-12T22:37:02;67086.25;;;18.13;100.00
37132;BME280;23035;50.032;21.978;2023-08-12T22:42:06;67006.94;;;17.38;100.00
37132;BME280;23035;50.032;21.978;2023-08-12T22:47:12;67046.88;;;17.76;100.00
37132;BME280;23035;50.032;21.978;2023-08-12T22:52:16;67064.13;;;17.92;100.00
37132;BME280;23035;50.032;21.978;2023-08-12T22:57:20;66992.78;;;17.20;100.00
37132;BME280;23035;50.032;21.978;2023-08-12T23:02:25;66971.84;;;17.03;100.00
37132;BME280;23035;50.032;21.978;2023-08-12T23:07:29;67016.13;;;17.47;100.00
37132;BME280;23035;50.032;21.978;2023-08-12T23:12:33;66974.63;;;17.08;100.00
37132;BME280;23035;50.032;21.978;2023-08-12T23:17:39;66920.78;;;16.59;100.00
37132;BME280;23035;50.032;21.978;2023-08-12T23:22:43;66935.25;;;16.71;100.00
37132;BME280;23035;50.032;21.978;2023-08-12T23:27:47;66956.91;;;16.94;100.00
37132;BME280;23035;50.032;21.978;2023-08-12T23:32:52;66879.81;;;16.21;100.00
37132;BME280;23035;50.032;21.978;2023-08-12T23:37:56;66962.75;;;16.97;100.00
37132;BME280;23035;50.032;21.978;2023-08-12T23:43:00;66932.56;;;16.68;100.00
37132;BME280;23035;50.032;21.978;2023-08-12T23:48:07;66986.00;;;17.21;100.00
37132;BME280;23035;50.032;21.978;2023-08-12T23:53:11;67002.09;;;17.34;100.00
37132;BME280;23035;50.032;21.978;2023-08-12T23:58:15;67021.53;;;17.52;100.00
